sensor_id;sensor_type;location;lat;lon;timestamp;pressure;altitude;pressure_sealevel;temperature;humidity
65131;BME280;51709;54.912;8.316;2024-03-08T00:00:05;102519.47;;;4.00;79.33
65131;BME280;51709;54.912;8.316;2024-03-08T00:05:30;102522.78;;;4.05;79.08
65131;BME280;51709;54.912;8.316;2024-03-08T00:10:52;102522.06;;;4.01;79.40
65131;BME280;51709;54.912;8.316;2024-03-08T00:16:12;102519.63;;;3.97;79.29
65131;BME280;51709;54.912;8.316;2024-03-08T00:21:33;102512.38;;;3.80;79.16
65131;BME280;51709;54.912;8.316;2024-03-08T00:26:53;102511.22;;;3.67;78.58
65131;BME280;51709;54.912;8.316;2024-03-08T00:32:14;102512.53;;;3.59;78.76
65131;BME280;51709;54.912;8.316;2024-03-08T00:37:35;102506.00;;;3.46;78.45
65131;BME280;51709;54.912;8.316;2024-03-08T00:42:56;102504.63;;;3.37;78.69
65131;BME280;51709;54.912;8.316;2024-03-08T00:48:16;102501.34;;;3.31;78.69
65131;BME280;51709;54.912;8.316;2024-03-08T00:53:37;102493.66;;;3.23;78.92
65131;BME280;51709;54.912;8.316;2024-03-08T00:58:58;102491.16;;;3.18;78.71
65131;BME280;51709;54.912;8.316;2024-03-08T01:04:20;102487.91;;;3.12;78.91
65131;BME280;51709;54.912;8.316;2024-03-08T01:09:41;102476.44;;;3.08;79.11
65131;BME280;51709;54.912;8.316;2024-03-08T01:15:02;102465.78;;;3.07;79.05
65131;BME280;51709;54.912;8.316;2024-03-08T01:20:23;102461.31;;;3.06;79.05
65131;BME280;51709;54.912;8.316;2024-03-08T01:25:45;102449.75;;;3.05;78.95
65131;BME280;51709;54.912;8.316;2024-03-08T01:31:06;102442.75;;;3.01;79.06
65131;BME280;51709;54.912;8.316;2024-03-08T01:36:26;102445.44;;;3.01;79.10
65131;BME280;51709;54.912;8.316;2024-03-08T01:41:47;102441.06;;;2.99;79.11
65131;BME280;51709;54.912;8.316;2024-03-08T01:47:08;102427.72;;;2.97;78.96
65131;BME280;51709;54.912;8.316;2024-03-08T01:52:29;102424.41;;;2.92;79.12
65131;BME280;51709;54.912;8.316;2024-03-08T01:57:51;102422.53;;;2.94;79.13
65131;BME280;51709;54.912;8.316;2024-03-08T02:03:12;102426.13;;;2.93;79.15
65131;BME280;51709;54.912;8.316;2024-03-08T02:08:33;102418.38;;;2.87;79.06
65131;BME280;51709;54.912;8.316;2024-03-08T02:13:55;102411.97;;;2.90;78.95
65131;BME280;51709;54.912;8.316;2024-03-08T02:19:15;102403.94;;;2.90;78.97
65131;BME280;51709;54.912;8.316;2024-03-08T02:24:36;102401.31;;;2.88;78.93
65131;BME280;51709;54.912;8.316;2024-03-08T02:29:57;102382.53;;;2.88;78.99
65131;BME280;51709;54.912;8.316;2024-03-08T02:35:17;102390.59;;;2.88;78.93
65131;BME280;51709;54.912;8.316;2024-03-08T02:40:38;102383.50;;;2.87;78.86
65131;BME280;51709;54.912;8.316;2024-03-08T02:45:59;102379.84;;;2.88;78.90
65131;BME280;51709;54.912;8.316;2024-03-08T02:51:20;102376.38;;;2.86;78.87
65131;BME280;51709;54.912;8.316;2024-03-08T02:56:40;102373.75;;;2.85;79.02
65131;BME280;51709;54.912;8.316;2024-03-08T03:02:02;102369.28;;;2.85;78.77
65131;BME280;51709;54.912;8.316;2024-03-08T03:07:22;102363.03;;;2.85;78.80
65131;BME280;51709;54.912;8.316;2024-03-08T03:12:43;102349.63;;;2.85;78.84
65131;BME280;51709;54.912;8.316;2024-03-08T03:18:05;102344.47;;;2.80;78.95
65131;BME280;51709;54.912;8.316;2024-03-08T03:23:28;102344.53;;;2.79;78.82
65131;BME280;51709;54.912;8.316;2024-03-08T03:28:53;102339.22;;;2.77;78.84
65131;BME280;51709;54.912;8.316;2024-03-08T03:34:14;102335.75;;;2.75;78.89
65131;BME280;51709;54.912;8.316;2024-03-08T03:39:35;102333.88;;;2.77;78.80
65131;BME280;51709;54.912;8.316;2024-03-08T03:45:01;102339.38;;;2.74;78.67
65131;BME280;51709;54.912;8.316;2024-03-08T03:50:24;102327.94;;;2.71;78.88
65131;BME280;51709;54.912;8.316;2024-03-08T03:55:44;102334.28;;;2.68;78.78
65131;BME280;51709;54.912;8.316;2024-03-08T04:01:06;102314.88;;;2.63;78.87
65131;BME280;51709;54.912;8.316;2024-03-08T04:06:26;102326.56;;;2.62;78.59
65131;BME280;51709;54.912;8.316;2024-03-08T04:11:48;102310.53;;;2.61;78.92
65131;BME280;51709;54.912;8.316;2024-03-08T04:17:08;102323.22;;;2.57;78.95
65131;BME280;51709;54.912;8.316;2024-03-08T04:22:29;102309.94;;;2.54;78.85
65131;BME280;51709;54.912;8.316;2024-03-08T04:27:49;102309.13;;;2.52;78.80
65131;BME280;51709;54.912;8.316;2024-03-08T04:33:10;102311.97;;;2.49;78.69
65131;BME280;51709;54.912;8.316;2024-03-08T04:38:31;102298.75;;;2.45;78.78
65131;BME280;51709;54.912;8.316;2024-03-08T04:43:51;102307.84;;;2.42;78.99
65131;BME280;51709;54.912;8.316;2024-03-08T04:49:12;102297.25;;;2.39;78.92
65131;BME280;51709;54.912;8.316;2024-03-08T04:54:33;102295.31;;;2.43;79.47
65131;BME280;51709;54.912;8.316;2024-03-08T04:59:54;102298.75;;;2.45;79.79
65131;BME280;51709;54.912;8.316;2024-03-08T05:05:15;102280.78;;;2.47;79.75
65131;BME280;51709;54.912;8.316;2024-03-08T05:10:36;102293.13;;;2.51;79.38
65131;BME280;51709;54.912;8.316;2024-03-08T05:15:56;102281.38;;;2.53;78.98
65131;BME280;51709;54.912;8.316;2024-03-08T05:21:19;102284.72;;;2.58;78.74
65131;BME280;51709;54.912;8.316;2024-03-08T05:26:41;102274.88;;;2.59;78.54
65131;BME280;51709;54.912;8.316;2024-03-08T05:32:01;102284.56;;;2.61;78.49
65131;BME280;51709;54.912;8.316;2024-03-08T05:37:23;102282.03;;;2.58;78.48
65131;BME280;51709;54.912;8.316;2024-03-08T05:42:43;102273.81;;;2.61;78.40
65131;BME280;51709;54.912;8.316;2024-03-08T05:48:05;102273.81;;;2.61;78.31
65131;BME280;51709;54.912;8.316;2024-03-08T05:53:25;102272.09;;;2.60;78.47
65131;BME280;51709;54.912;8.316;2024-03-08T05:58:47;102279.19;;;2.61;78.43
65131;BME280;51709;54.912;8.316;2024-03-08T06:04:10;102287.16;;;2.63;78.34
65131;BME280;51709;54.912;8.316;2024-03-08T06:09:34;102276.88;;;2.54;78.46
65131;BME280;51709;54.912;8.316;2024-03-08T06:14:55;102285.44;;;2.62;78.31
65131;BME280;51709;54.912;8.316;2024-03-08T06:20:15;102277.31;;;2.63;78.18
65131;BME280;51709;54.912;8.316;2024-03-08T06:25:36;102267.38;;;2.65;78.26
65131;BME280;51709;54.912;8.316;2024-03-08T06:30:56;102265.44;;;2.69;78.19
65131;BME280;51709;54.912;8.316;2024-03-08T06:36:18;102268.03;;;2.70;78.59
65131;BME280;51709;54.912;8.316;2024-03-08T06:41:45;102268.66;;;2.75;78.42
65131;BME280;51709;54.912;8.316;2024-03-08T06:47:06;102267.59;;;2.79;78.18
65131;BME280;51709;54.912;8.316;2024-03-08T06:52:27;102263.56;;;2.88;78.02
65131;BME280;51709;54.912;8.316;2024-03-08T06:57:48;102263.22;;;2.95;78.07
65131;BME280;51709;54.912;8.316;2024-03-08T07:03:09;102260.78;;;3.08;77.94
65131;BME280;51709;54.912;8.316;2024-03-08T07:08:32;102257.81;;;3.14;78.10
65131;BME280;51709;54.912;8.316;2024-03-08T07:13:53;102259.97;;;3.25;77.95
65131;BME280;51709;54.912;8.316;2024-03-08T07:19:14;102251.19;;;3.21;77.90
65131;BME280;51709;54.912;8.316;2024-03-08T07:24:36;102265.50;;;3.39;77.88
65131;BME280;51709;54.912;8.316;2024-03-08T07:30:14;102251.69;;;3.46;77.52
65131;BME280;51709;54.912;8.316;2024-03-08T07:35:54;102254.28;;;3.48;77.64
65131;BME280;51709;54.912;8.316;2024-03-08T07:41:15;102244.50;;;3.47;77.58
65131;BME280;51709;54.912;8.316;2024-03-08T07:46:36;102253.00;;;3.55;77.44
65131;BME280;51709;54.912;8.316;2024-03-08T07:51:57;102247.97;;;3.66;77.44
65131;BME280;51709;54.912;8.316;2024-03-08T07:57:18;102246.69;;;3.73;77.21
65131;BME280;51709;54.912;8.316;2024-03-08T08:02:39;102247.63;;;3.89;77.29
65131;BME280;51709;54.912;8.316;2024-03-08T08:08:00;102246.69;;;3.90;77.34
65131;BME280;51709;54.912;8.316;2024-03-08T08:13:21;102244.53;;;3.96;76.96
65131;BME280;51709;54.912;8.316;2024-03-08T08:18:41;102242.41;;;4.03;77.24
65131;BME280;51709;54.912;8.316;2024-03-08T08:24:05;102240.94;;;4.13;77.25
65131;BME280;51709;54.912;8.316;2024-03-08T08:29:26;102233.38;;;4.19;77.05
65131;BME280;51709;54.912;8.316;2024-03-08T08:34:47;102240.81;;;4.47;76.88
65131;BME280;51709;54.912;8.316;2024-03-08T08:40:08;102225.22;;;4.69;76.50
65131;BME280;51709;54.912;8.316;2024-03-08T08:45:31;102224.84;;;4.75;76.73
65131;BME280;51709;54.912;8.316;2024-03-08T08:50:52;102214.44;;;4.85;76.60
65131;BME280;51709;54.912;8.316;2024-03-08T08:56:13;102208.59;;;4.92;76.42
65131;BME280;51709;54.912;8.316;2024-03-08T09:01:34;102209.97;;;4.99;76.50
65131;BME280;51709;54.912;8.316;2024-03-08T09:06:54;102201.50;;;5.21;76.38
65131;BME280;51709;54.912;8.316;2024-03-08T09:12:15;102187.19;;;5.64;76.00
65131;BME280;51709;54.912;8.316;2024-03-08T09:17:37;102176.66;;;6.03;75.34
65131;BME280;51709;54.912;8.316;2024-03-08T09:22:59;102180.56;;;6.26;75.38
65131;BME280;51709;54.912;8.316;2024-03-08T09:28:20;102164.63;;;6.64;75.02
65131;BME280;51709;54.912;8.316;2024-03-08T09:33:42;102162.03;;;6.89;74.57
65131;BME280;51709;54.912;8.316;2024-03-08T09:39:03;102149.16;;;7.31;74.12
65131;BME280;51709;54.912;8.316;2024-03-08T09:44:23;102145.94;;;7.77;73.48
65131;BME280;51709;54.912;8.316;2024-03-08T09:49:47;102150.69;;;8.83;72.92
65131;BME280;51709;54.912;8.316;2024-03-08T09:55:10;102121.22;;;10.27;70.39
65131;BME280;51709;54.912;8.316;2024-03-08T10:00:33;102129.22;;;12.66;65.13
65131;BME280;51709;54.912;8.316;2024-03-08T10:05:56;102121.53;;;13.28;64.38
65131;BME280;51709;54.912;8.316;2024-03-08T10:11:20;102120.31;;;14.52;62.56
65131;BME280;51709;54.912;8.316;2024-03-08T10:16:40;102108.22;;;14.54;63.32
65131;BME280;51709;54.912;8.316;2024-03-08T10:22:01;102107.25;;;14.73;64.43
65131;BME280;51709;54.912;8.316;2024-03-08T10:27:24;102109.63;;;14.58;66.16
65131;BME280;51709;54.912;8.316;2024-03-08T10:32:47;102094.91;;;15.22;65.40
65131;BME280;51709;54.912;8.316;2024-03-08T10:38:11;102087.53;;;15.65;64.66
65131;BME280;51709;54.912;8.316;2024-03-08T10:49:17;102064.81;;;17.30;62.08
65131;BME280;51709;54.912;8.316;2024-03-08T10:54:40;102053.81;;;17.62;62.31
65131;BME280;51709;54.912;8.316;2024-03-08T11:00:07;102055.25;;;18.05;63.00
65131;BME280;51709;54.912;8.316;2024-03-08T11:05:38;102042.72;;;18.72;63.83
65131;BME280;51709;54.912;8.316;2024-03-08T11:11:03;102042.97;;;19.67;63.18
65131;BME280;51709;54.912;8.316;2024-03-08T11:21:45;102026.38;;;22.76;58.46
65131;BME280;51709;54.912;8.316;2024-03-08T11:27:06;102013.88;;;23.65;57.20
65131;BME280;51709;54.912;8.316;2024-03-08T11:32:29;102007.69;;;24.46;55.34
65131;BME280;51709;54.912;8.316;2024-03-08T11:37:50;102014.13;;;24.40;55.01
65131;BME280;51709;54.912;8.316;2024-03-08T11:43:11;101998.06;;;25.42;53.09
65131;BME280;51709;54.912;8.316;2024-03-08T11:48:32;101993.78;;;26.25;52.21
65131;BME280;51709;54.912;8.316;2024-03-08T11:53:53;101980.47;;;27.16;51.15
65131;BME280;51709;54.912;8.316;2024-03-08T11:59:13;101971.16;;;27.80;50.10
65131;BME280;51709;54.912;8.316;2024-03-08T12:04:35;101961.84;;;27.63;50.55
65131;BME280;51709;54.912;8.316;2024-03-08T12:10:18;101954.75;;;27.83;50.55
65131;BME280;51709;54.912;8.316;2024-03-08T12:15:41;101943.00;;;27.58;51.01
65131;BME280;51709;54.912;8.316;2024-03-08T12:21:08;101927.19;;;28.27;50.17
65131;BME280;51709;54.912;8.316;2024-03-08T12:26:30;101928.06;;;28.83;50.03
65131;BME280;51709;54.912;8.316;2024-03-08T12:31:58;101913.22;;;27.75;51.82
65131;BME280;51709;54.912;8.316;2024-03-08T12:37:21;101913.09;;;28.50;50.88
65131;BME280;51709;54.912;8.316;2024-03-08T12:42:47;101897.41;;;27.93;51.80
65131;BME280;51709;54.912;8.316;2024-03-08T12:48:12;101893.28;;;28.23;50.92
65131;BME280;51709;54.912;8.316;2024-03-08T12:53:35;101890.56;;;28.40;51.21
65131;BME280;51709;54.912;8.316;2024-03-08T12:58:56;101891.28;;;27.56;51.56
65131;BME280;51709;54.912;8.316;2024-03-08T13:04:17;101883.03;;;25.24;54.83
65131;BME280;51709;54.912;8.316;2024-03-08T13:09:39;101865.78;;;24.35;55.78
65131;BME280;51709;54.912;8.316;2024-03-08T13:14:59;101865.78;;;24.35;56.03
65131;BME280;51709;54.912;8.316;2024-03-08T13:20:20;101858.25;;;23.53;57.09
65131;BME280;51709;54.912;8.316;2024-03-08T13:25:53;101858.03;;;23.61;57.30
65131;BME280;51709;54.912;8.316;2024-03-08T13:31:14;101832.91;;;23.30;58.16
65131;BME280;51709;54.912;8.316;2024-03-08T13:36:35;101848.31;;;23.00;58.20
65131;BME280;51709;54.912;8.316;2024-03-08T13:42:02;101835.88;;;22.05;60.12
65131;BME280;51709;54.912;8.316;2024-03-08T13:47:25;101830.63;;;21.69;60.95
65131;BME280;51709;54.912;8.316;2024-03-08T13:52:47;101801.69;;;21.24;61.11
65131;BME280;51709;54.912;8.316;2024-03-08T13:58:14;101808.41;;;20.81;61.77
65131;BME280;51709;54.912;8.316;2024-03-08T14:03:35;101809.03;;;20.13;62.84
65131;BME280;51709;54.912;8.316;2024-03-08T14:08:56;101801.53;;;19.86;61.88
65131;BME280;51709;54.912;8.316;2024-03-08T14:14:18;101793.34;;;18.10;64.53
65131;BME280;51709;54.912;8.316;2024-03-08T14:19:38;101785.16;;;16.15;67.40
65131;BME280;51709;54.912;8.316;2024-03-08T14:24:59;101777.63;;;14.34;70.71
65131;BME280;51709;54.912;8.316;2024-03-08T14:30:23;101771.59;;;13.25;72.58
65131;BME280;51709;54.912;8.316;2024-03-08T14:35:56;101762.09;;;12.65;73.75
65131;BME280;51709;54.912;8.316;2024-03-08T14:41:16;101762.13;;;11.81;74.84
65131;BME280;51709;54.912;8.316;2024-03-08T14:46:37;101747.34;;;11.45;75.49
65131;BME280;51709;54.912;8.316;2024-03-08T14:51:59;101739.88;;;11.18;75.71
65131;BME280;51709;54.912;8.316;2024-03-08T14:57:19;101730.59;;;10.81;75.88
65131;BME280;51709;54.912;8.316;2024-03-08T15:02:40;101729.00;;;10.39;76.90
65131;BME280;51709;54.912;8.316;2024-03-08T15:08:00;101716.69;;;10.35;76.73
65131;BME280;51709;54.912;8.316;2024-03-08T15:13:21;101718.06;;;10.20;77.07
65131;BME280;51709;54.912;8.316;2024-03-08T15:18:44;101707.13;;;10.10;77.47
65131;BME280;51709;54.912;8.316;2024-03-08T15:24:11;101713.94;;;10.05;76.97
65131;BME280;51709;54.912;8.316;2024-03-08T15:29:35;101697.84;;;9.92;76.97
65131;BME280;51709;54.912;8.316;2024-03-08T15:34:56;101682.84;;;9.68;77.12
65131;BME280;51709;54.912;8.316;2024-03-08T15:40:18;101672.44;;;9.73;76.70
65131;BME280;51709;54.912;8.316;2024-03-08T15:45:42;101665.81;;;9.66;76.53
65131;BME280;51709;54.912;8.316;2024-03-08T15:51:04;101644.47;;;9.52;76.44
65131;BME280;51709;54.912;8.316;2024-03-08T15:56:25;101633.59;;;9.52;76.38
65131;BME280;51709;54.912;8.316;2024-03-08T16:01:46;101620.63;;;9.34;76.30
65131;BME280;51709;54.912;8.316;2024-03-08T16:07:12;101612.84;;;9.09;76.34
65131;BME280;51709;54.912;8.316;2024-03-08T16:12:36;101608.88;;;8.93;76.36
65131;BME280;51709;54.912;8.316;2024-03-08T16:17:57;101608.50;;;8.97;76.26
65131;BME280;51709;54.912;8.316;2024-03-08T16:23:17;101608.09;;;9.02;75.89
65131;BME280;51709;54.912;8.316;2024-03-08T16:28:38;101608.25;;;9.21;75.83
65131;BME280;51709;54.912;8.316;2024-03-08T16:34:00;101605.94;;;9.16;75.20
65131;BME280;51709;54.912;8.316;2024-03-08T16:39:21;101611.34;;;9.16;75.14
65131;BME280;51709;54.912;8.316;2024-03-08T16:44:41;101608.19;;;9.11;75.54
65131;BME280;51709;54.912;8.316;2024-03-08T16:50:02;101596.38;;;9.01;75.75
65131;BME280;51709;54.912;8.316;2024-03-08T16:55:26;101596.50;;;8.79;75.61
65131;BME280;51709;54.912;8.316;2024-03-08T17:00:47;101600.91;;;8.26;75.99
65131;BME280;51709;54.912;8.316;2024-03-08T17:06:08;101599.28;;;7.58;76.49
65131;BME280;51709;54.912;8.316;2024-03-08T17:11:29;101601.28;;;6.86;77.05
65131;BME280;51709;54.912;8.316;2024-03-08T17:16:50;101593.94;;;6.41;77.20
65131;BME280;51709;54.912;8.316;2024-03-08T17:22:12;101599.31;;;6.05;77.54
65131;BME280;51709;54.912;8.316;2024-03-08T17:27:33;101601.50;;;5.75;77.58
65131;BME280;51709;54.912;8.316;2024-03-08T17:32:57;101602.69;;;5.46;77.58
65131;BME280;51709;54.912;8.316;2024-03-08T17:38:20;101595.22;;;5.24;77.80
65131;BME280;51709;54.912;8.316;2024-03-08T17:43:45;101600.69;;;4.97;77.89
65131;BME280;51709;54.912;8.316;2024-03-08T17:49:06;101598.84;;;4.85;77.94
65131;BME280;51709;54.912;8.316;2024-03-08T17:54:27;101595.44;;;4.69;78.06
65131;BME280;51709;54.912;8.316;2024-03-08T17:59:49;101593.47;;;4.59;77.99
65131;BME280;51709;54.912;8.316;2024-03-08T18:05:09;101583.22;;;4.51;77.74
65131;BME280;51709;54.912;8.316;2024-03-08T18:10:34;101580.47;;;4.39;78.32
65131;BME280;51709;54.912;8.316;2024-03-08T18:15:54;101579.81;;;4.35;77.82
65131;BME280;51709;54.912;8.316;2024-03-08T18:21:16;101574.84;;;4.29;77.76
65131;BME280;51709;54.912;8.316;2024-03-08T18:26:37;101575.13;;;4.24;77.81
65131;BME280;51709;54.912;8.316;2024-03-08T18:31:57;101567.75;;;4.14;77.95
65131;BME280;51709;54.912;8.316;2024-03-08T18:37:19;101568.16;;;4.08;78.03
65131;BME280;51709;54.912;8.316;2024-03-08T18:42:40;101564.16;;;4.01;77.93
65131;BME280;51709;54.912;8.316;2024-03-08T18:48:01;101551.31;;;3.92;77.84
65131;BME280;51709;54.912;8.316;2024-03-08T18:53:21;101557.19;;;3.84;77.65
65131;BME280;51709;54.912;8.316;2024-03-08T18:58:43;101557.75;;;3.75;77.89
65131;BME280;51709;54.912;8.316;2024-03-08T19:04:06;101560.06;;;3.67;77.57
65131;BME280;51709;54.912;8.316;2024-03-08T19:09:27;101554.00;;;3.64;77.53
65131;BME280;51709;54.912;8.316;2024-03-08T19:14:47;101549.06;;;3.58;77.72
65131;BME280;51709;54.912;8.316;2024-03-08T19:20:11;101543.09;;;3.53;77.60
65131;BME280;51709;54.912;8.316;2024-03-08T19:25:38;101530.06;;;3.47;77.38
65131;BME280;51709;54.912;8.316;2024-03-08T19:31:02;101542.72;;;3.45;77.27
65131;BME280;51709;54.912;8.316;2024-03-08T19:36:23;101532.19;;;3.42;77.19
65131;BME280;51709;54.912;8.316;2024-03-08T19:41:43;101534.00;;;3.41;77.53
65131;BME280;51709;54.912;8.316;2024-03-08T19:47:04;101537.34;;;3.45;77.89
65131;BME280;51709;54.912;8.316;2024-03-08T19:52:28;101529.38;;;3.43;77.33
65131;BME280;51709;54.912;8.316;2024-03-08T19:57:49;101523.16;;;3.43;77.33
65131;BME280;51709;54.912;8.316;2024-03-08T20:03:18;101521.22;;;3.45;77.49
65131;BME280;51709;54.912;8.316;2024-03-08T20:08:43;101524.69;;;3.47;77.79
65131;BME280;51709;54.912;8.316;2024-03-08T20:14:04;101519.13;;;3.50;77.83
65131;BME280;51709;54.912;8.316;2024-03-08T20:19:26;101518.06;;;3.52;77.65
65131;BME280;51709;54.912;8.316;2024-03-08T20:24:49;101506.34;;;3.53;77.55
65131;BME280;51709;54.912;8.316;2024-03-08T20:30:12;101501.94;;;3.52;77.31
65131;BME280;51709;54.912;8.316;2024-03-08T20:35:35;101496.47;;;3.54;77.42
65131;BME280;51709;54.912;8.316;2024-03-08T20:40:55;101489.19;;;3.56;77.28
65131;BME280;51709;54.912;8.316;2024-03-08T20:46:17;101487.34;;;3.56;77.03
65131;BME280;51709;54.912;8.316;2024-03-08T20:51:39;101483.81;;;3.56;76.96
65131;BME280;51709;54.912;8.316;2024-03-08T20:57:02;101482.66;;;3.60;76.84
65131;BME280;51709;54.912;8.316;2024-03-08T21:02:22;101483.81;;;3.56;76.89
65131;BME280;51709;54.912;8.316;2024-03-08T21:07:46;101466.84;;;3.55;76.65
65131;BME280;51709;54.912;8.316;2024-03-08T21:13:07;101464.34;;;3.52;76.71
65131;BME280;51709;54.912;8.316;2024-03-08T21:18:30;101452.75;;;3.52;76.88
65131;BME280;51709;54.912;8.316;2024-03-08T21:23:51;101438.53;;;3.50;76.83
65131;BME280;51709;54.912;8.316;2024-03-08T21:29:14;101443.91;;;3.50;76.68
65131;BME280;51709;54.912;8.316;2024-03-08T21:34:39;101434.31;;;3.46;76.80
65131;BME280;51709;54.912;8.316;2024-03-08T21:39:59;101429.06;;;3.44;76.84
65131;BME280;51709;54.912;8.316;2024-03-08T21:45:23;101425.22;;;3.48;76.62
65131;BME280;51709;54.912;8.316;2024-03-08T21:50:51;101415.66;;;3.71;76.33
65131;BME280;51709;54.912;8.316;2024-03-08T21:56:11;101412.56;;;4.03;75.79
65131;BME280;51709;54.912;8.316;2024-03-08T22:01:33;101411.19;;;3.84;76.16
65131;BME280;51709;54.912;8.316;2024-03-08T22:06:55;101404.72;;;3.74;76.38
65131;BME280;51709;54.912;8.316;2024-03-08T22:12:16;101399.75;;;3.68;76.40
65131;BME280;51709;54.912;8.316;2024-03-08T22:17:37;101390.91;;;3.66;76.69
65131;BME280;51709;54.912;8.316;2024-03-08T22:22:58;101393.81;;;3.63;76.48
65131;BME280;51709;54.912;8.316;2024-03-08T22:28:20;101393.06;;;3.61;76.74
65131;BME280;51709;54.912;8.316;2024-03-08T22:33:46;101379.06;;;3.56;76.04
65131;BME280;51709;54.912;8.316;2024-03-08T22:39:07;101384.94;;;3.48;75.93
65131;BME280;51709;54.912;8.316;2024-03-08T22:44:31;101374.47;;;3.44;76.07
65131;BME280;51709;54.912;8.316;2024-03-08T22:49:55;101377.38;;;3.41;75.80
65131;BME280;51709;54.912;8.316;2024-03-08T22:55:16;101367.78;;;3.37;75.77
65131;BME280;51709;54.912;8.316;2024-03-08T23:00:42;101368.00;;;3.34;75.94
65131;BME280;51709;54.912;8.316;2024-03-08T23:06:03;101362.84;;;3.31;76.04
65131;BME280;51709;54.912;8.316;2024-03-08T23:11:24;101360.25;;;3.29;75.95
65131;BME280;51709;54.912;8.316;2024-03-08T23:16:46;101348.66;;;3.29;76.05
65131;BME280;51709;54.912;8.316;2024-03-08T23:22:10;101350.47;;;3.28;76.03
65131;BME280;51709;54.912;8.316;2024-03-08T23:27:31;101334.66;;;3.24;76.15
65131;BME280;51709;54.912;8.316;2024-03-08T23:32:53;101329.31;;;3.24;75.93
65131;BME280;51709;54.912;8.316;2024-03-08T23:38:18;101320.28;;;3.25;75.90
65131;BME280;51709;54.912;8.316;2024-03-08T23:43:38;101327.38;;;3.26;76.21
65131;BME280;51709;54.912;8.316;2024-03-08T23:49:04;101330.13;;;3.24;76.21
65131;BME280;51709;54.912;8.316;2024-03-08T23:54:26;101331.22;;;3.22;76.18
65131;BME280;51709;54.912;8.316;2024-03-08T23:59:47;101326.63;;;3.24;76.13
